Time;durP1;ratioP1;P1;durP2;ratioP2;P2;SDS_P1;SDS_P2;PMS_P1;PMS_P2;Temp;Humidity;BMP_temperature;BMP_pressure;BME280_temperature;BME280_humidity;BME280_pressure;Samples;Min_cycle;Max_cycle;Signal;HPM_P1;HPM_P2
2021/09/30 00:01:35;;;;;;;15.72;7.90;;;;;;;7.87;65.17;102221.39;1770159;78;20995;-55
2021/09/30 00:04:01;;;;;;;18.85;9.08;;;;;;;7.81;65.30;102211.98;1765622;79;21062;-57
2021/09/30 00:06:29;;;;;;;10.65;6.12;;;;;;;7.80;65.41;102212.03;1769100;79;21054;-57
2021/09/30 00:08:55;;;;;;;12.50;7.05;;;;;;;7.86;65.39;102218.36;1772299;79;21093;-55
2021/09/30 00:11:27;;;;;;;13.28;6.90;;;;;;;7.93;65.43;102212.41;1770992;78;21090;-56
2021/09/30 00:13:59;;;;;;;15.65;8.23;;;;;;;7.96;65.49;102214.45;1773510;79;21470;-56
2021/09/30 00:16:33;;;;;;;14.85;7.97;;;;;;;8.00;65.56;102214.75;1770168;78;21474;-57
2021/09/30 00:46:10;;;;;;;12.23;6.70;;;;;;;7.86;65.61;102203.09;1745443;80;21503;-55
2021/09/30 00:51:20;;;;;;;14.23;7.85;;;;;;;7.97;65.52;102208.77;1746166;79;21199;-56
2021/09/30 02:20:09;;;;;;;11.93;6.78;;;;;;;8.88;66.00;102205.02;1725916;81;21023;-56
2021/09/30 03:00:42;;;;;;;12.35;6.92;;;;;;;9.11;66.27;102206.61;1759275;79;21055;-55
2021/09/30 03:03:10;;;;;;;11.88;7.30;;;;;;;9.12;66.15;102208.33;1759139;79;21599;-56
2021/09/30 03:05:37;;;;;;;13.43;7.92;;;;;;;9.14;66.21;102204.32;1760680;79;21344;-56
2021/09/30 03:08:04;;;;;;;12.00;7.45;;;;;;;9.16;66.03;102203.78;1712970;81;21983;-56
2021/09/30 03:10:30;;;;;;;14.13;7.50;;;;;;;9.14;65.77;102198.59;1747969;80;21061;-56
2021/09/30 03:12:57;;;;;;;13.35;7.08;;;;;;;9.12;65.74;102207.02;1736970;80;21069;-56
2021/09/30 03:17:59;;;;;;;10.82;6.70;;;;;;;9.10;65.94;102205.77;1713092;81;21073;-55
2021/09/30 03:23:08;;;;;;;11.20;6.20;;;;;;;9.26;65.85;102205.94;1724215;81;21120;-56
2021/09/30 03:25:35;;;;;;;10.45;6.35;;;;;;;9.33;65.78;102203.89;1696302;81;21037;-54
2021/09/30 03:28:03;;;;;;;14.45;7.80;;;;;;;9.37;65.69;102205.91;1695845;82;21085;-55
2021/09/30 03:30:31;;;;;;;10.72;7.72;;;;;;;9.37;65.68;102204.59;1694568;82;21077;-56
2021/09/30 03:33:02;;;;;;;12.25;7.00;;;;;;;9.39;65.71;102210.16;1698256;81;21811;-56
2021/09/30 03:35:30;;;;;;;12.07;7.35;;;;;;;9.38;65.63;102205.84;1720587;81;21654;-56
2021/09/30 03:37:57;;;;;;;13.48;7.90;;;;;;;9.40;65.57;102209.25;1718832;81;21057;-56
2021/09/30 03:40:24;;;;;;;10.82;7.37;;;;;;;9.41;65.49;102206.98;1718185;81;21069;-57
2021/09/30 03:42:50;;;;;;;11.55;6.87;;;;;;;9.39;65.49;102208.84;1724414;81;21050;-56
2021/09/30 03:45:16;;;;;;;11.90;7.50;;;;;;;9.33;65.53;102207.83;1723681;81;21117;-56
2021/09/30 03:47:44;;;;;;;12.07;7.08;;;;;;;9.26;65.63;102203.31;1715601;81;21093;-55
2021/09/30 03:50:18;;;;;;;13.13;7.00;;;;;;;9.26;65.59;102199.37;1722330;81;21089;-56
2021/09/30 03:53:09;;;;;;;14.93;6.60;;;;;;;9.33;65.47;102205.20;1723785;81;21042;-56
2021/09/30 03:55:55;;;;;;;12.60;7.08;;;;;;;9.35;65.61;102208.61;1699810;81;21472;-55
2021/09/30 04:00:38;;;;;;;11.55;7.03;;;;;;;9.37;65.68;102208.06;1720374;81;21554;-56
2021/09/30 04:03:06;;;;;;;16.52;7.92;;;;;;;9.36;65.63;102201.56;1705492;81;21831;-54
2021/09/30 04:05:34;;;;;;;11.12;7.67;;;;;;;9.34;65.61;102196.37;1722383;81;21066;-54
2021/09/30 04:08:01;;;;;;;13.93;7.22;;;;;;;9.30;65.46;102194.36;1716338;81;21053;-54
2021/09/30 04:10:28;;;;;;;12.63;7.65;;;;;;;9.28;65.38;102201.47;1724610;81;22245;-55
2021/09/30 04:12:55;;;;;;;11.03;7.10;;;;;;;9.27;65.25;102205.47;1693269;82;21030;-56
2021/09/30 04:15:22;;;;;;;12.50;6.65;;;;;;;9.21;65.27;102203.98;1724992;81;21000;-55
2021/09/30 04:17:48;;;;;;;11.08;6.45;;;;;;;9.19;65.45;102204.49;1730872;81;20946;-55
2021/09/30 04:20:17;;;;;;;10.60;5.83;;;;;;;9.24;65.23;102197.73;1755711;80;20993;-56
2021/09/30 04:22:44;;;;;;;10.95;5.97;;;;;;;9.32;64.93;102207.42;1755585;80;21213;-56
2021/09/30 04:25:12;;;;;;;11.10;6.30;;;;;;;9.37;64.70;102205.44;1754690;80;21068;-54
2021/09/30 04:27:40;;;;;;;11.40;5.97;;;;;;;9.41;64.62;102208.30;1730920;81;21021;-55
2021/09/30 04:30:09;;;;;;;12.28;6.05;;;;;;;9.42;64.67;102212.65;1753577;80;21043;-55
2021/09/30 04:32:37;;;;;;;11.12;7.25;;;;;;;9.44;64.75;102209.48;1749483;80;21043;-55
2021/09/30 04:35:06;;;;;;;10.23;6.70;;;;;;;9.46;64.65;102212.04;1753734;80;22684;-53
2021/09/30 04:37:34;;;;;;;11.80;6.80;;;;;;;9.47;64.53;102210.66;1753260;80;21025;-55
2021/09/30 04:40:03;;;;;;;10.25;6.10;;;;;;;9.49;64.44;102213.22;1731700;80;21084;-56
2021/09/30 04:42:30;;;;;;;11.40;6.62;;;;;;;9.49;64.35;102215.38;1708077;81;21354;-55
2021/09/30 04:44:59;;;;;;;11.08;7.03;;;;;;;9.52;64.28;102218.81;1748714;80;21090;-56
2021/09/30 04:47:27;;;;;;;10.95;6.87;;;;;;;9.53;64.16;102217.42;1713919;81;21575;-56
2021/09/30 04:49:55;;;;;;;9.98;6.00;;;;;;;9.54;64.09;102224.84;1746427;80;21107;-55
2021/09/30 04:52:22;;;;;;;8.93;5.25;;;;;;;9.60;64.10;102223.22;1753754;80;21491;-54
2021/09/30 04:54:49;;;;;;;8.95;5.40;;;;;;;9.72;63.90;102220.04;1730958;81;21004;-56
2021/09/30 04:57:16;;;;;;;16.55;6.62;;;;;;;9.84;63.65;102222.08;1753480;80;21327;-56
2021/09/30 04:59:42;;;;;;;10.98;6.80;;;;;;;9.93;63.67;102223.88;1752185;80;21089;-57
2021/09/30 05:02:13;;;;;;;11.30;6.45;;;;;;;9.97;63.71;102216.22;1715844;81;20987;-56
2021/09/30 05:04:40;;;;;;;11.38;6.35;;;;;;;10.02;63.63;102219.03;1755661;80;21014;-56
2021/09/30 05:07:09;;;;;;;10.75;6.45;;;;;;;10.10;63.42;102223.91;1691844;81;21581;-57
2021/09/30 05:09:35;;;;;;;10.48;6.40;;;;;;;10.16;63.24;102228.03;1726508;80;21112;-56
2021/09/30 05:12:03;;;;;;;12.80;7.15;;;;;;;10.19;63.04;102228.73;1717625;81;21087;-55
2021/09/30 05:14:33;;;;;;;10.82;7.12;;;;;;;10.21;62.82;102224.23;1756868;79;21001;-56
2021/09/30 05:17:00;;;;;;;10.95;6.85;;;;;;;10.22;62.55;102222.02;1755586;79;21088;-57
2021/09/30 05:19:28;;;;;;;11.80;6.05;;;;;;;10.23;62.22;102232.06;1745206;80;21063;-57
2021/09/30 05:21:55;;;;;;;10.08;5.92;;;;;;;10.27;61.82;102230.13;1753837;79;21028;-56
2021/09/30 05:24:21;;;;;;;10.55;6.72;;;;;;;10.27;61.69;102231.44;1756457;79;22191;-57
2021/09/30 05:26:48;;;;;;;12.00;5.97;;;;;;;10.27;61.70;102233.63;1753620;79;22398;-57
2021/09/30 05:29:14;;;;;;;8.55;5.30;;;;;;;10.32;61.60;102236.05;1756108;79;21005;-56
2021/09/30 05:31:42;;;;;;;10.58;5.00;;;;;;;10.44;61.39;102235.45;1751599;79;21028;-55
2021/09/30 05:34:19;;;;;;;11.50;6.33;;;;;;;10.54;61.36;102240.64;1713438;81;21047;-55
2021/09/30 05:36:46;;;;;;;10.43;6.22;;;;;;;10.64;61.22;102236.22;1686235;83;21155;-56
2021/09/30 05:39:13;;;;;;;13.38;6.22;;;;;;;10.69;61.18;102251.31;1719350;81;21137;-56
2021/09/30 05:41:40;;;;;;;9.65;6.25;;;;;;;10.76;61.07;102242.20;1716299;81;21104;-56
2021/09/30 05:44:10;;;;;;;12.43;6.08;;;;;;;10.82;60.88;102247.60;1707992;81;21075;-54
2021/09/30 05:46:43;;;;;;;10.65;6.22;;;;;;;10.85;60.59;102244.34;1754464;79;21055;-56
2021/09/30 05:49:05;;;;;;;10.23;6.05;;;;;;;10.89;60.38;102249.85;1726309;79;21109;-56
2021/09/30 05:51:33;;;;;;;9.60;6.12;;;;;;;10.94;60.21;102253.54;1726638;79;21593;-57
2021/09/30 05:54:05;;;;;;;9.70;5.53;;;;;;;10.97;60.39;102254.23;1752109;79;21059;-57
2021/09/30 05:56:34;;;;;;;8.80;6.30;;;;;;;10.97;60.22;102252.91;1759970;79;21483;-56
2021/09/30 05:59:00;;;;;;;10.45;5.65;;;;;;;10.97;60.33;102250.28;1753710;79;21061;-56
2021/09/30 06:12:50;;;;;;;10.18;5.35;;;;;;;11.13;60.20;102265.31;1751365;79;21522;-56
2021/09/30 06:15:17;;;;;;;11.53;6.20;;;;;;;11.28;59.63;102256.59;1728373;80;21046;-57
2021/09/30 06:17:45;;;;;;;10.68;6.50;;;;;;;11.42;59.10;102262.91;1725924;80;20987;-56
2021/09/30 06:20:12;;;;;;;11.12;6.20;;;;;;;11.53;58.71;102264.48;1754906;79;21025;-57
2021/09/30 06:22:41;;;;;;;11.38;6.33;;;;;;;11.60;58.59;102263.23;1754663;79;21334;-56
2021/09/30 06:25:09;;;;;;;9.00;5.72;;;;;;;11.64;58.49;102266.08;1755746;79;21555;-56
2021/09/30 06:27:36;;;;;;;10.32;5.95;;;;;;;11.70;58.34;102268.39;1751932;79;22216;-56
2021/09/30 06:30:05;;;;;;;10.80;6.42;;;;;;;11.76;58.21;102267.19;1754350;79;21803;-56
2021/09/30 06:32:32;;;;;;;10.23;5.65;;;;;;;11.81;58.16;102268.27;1759474;79;21563;-55
2021/09/30 06:35:13;;;;;;;11.45;7.22;;;;;;;11.82;58.08;102269.98;1759817;79;21387;-58
2021/09/30 06:37:42;;;;;;;10.50;6.67;;;;;;;11.82;57.90;102263.39;1720508;81;21491;-58
2021/09/30 06:40:10;;;;;;;11.22;7.40;;;;;;;11.83;57.91;102265.06;1757049;79;21109;-56
2021/09/30 06:42:37;;;;;;;14.13;7.35;;;;;;;11.84;58.03;102268.09;1756161;79;21522;-60
2021/09/30 06:45:13;;;;;;;8.53;5.58;;;;;;;11.84;57.84;102271.58;1754231;79;21453;-57
2021/09/30 06:47:41;;;;;;;13.40;7.58;;;;;;;11.86;57.70;102266.22;1756343;79;21103;-56
2021/09/30 06:50:12;;;;;;;10.90;6.47;;;;;;;11.87;57.68;102273.21;1760389;79;21001;-56
2021/09/30 06:52:56;;;;;;;10.20;5.87;;;;;;;11.89;57.87;102277.45;1709826;81;23241;-56
2021/09/30 06:55:42;;;;;;;10.95;6.60;;;;;;;11.92;57.88;102270.33;1725120;81;21926;-57
2021/09/30 06:58:28;;;;;;;12.18;7.30;;;;;;;11.96;57.46;102274.03;1695644;81;21719;-56
2021/09/30 07:01:16;;;;;;;11.48;6.35;;;;;;;12.03;57.39;102273.23;1708481;82;21041;-58
2021/09/30 07:03:56;;;;;;;12.58;6.45;;;;;;;12.06;57.52;102279.66;1649022;81;21133;-57
2021/09/30 07:06:25;;;;;;;10.95;6.55;;;;;;;12.09;57.08;102278.17;1754853;79;21494;-56
2021/09/30 07:08:52;;;;;;;10.70;6.12;;;;;;;12.15;57.34;102274.33;1756645;79;21455;-56
2021/09/30 07:11:18;;;;;;;8.58;5.15;;;;;;;12.23;57.18;102274.74;1750684;80;21040;-57
2021/09/30 07:13:46;;;;;;;9.55;6.33;;;;;;;12.28;57.08;102276.65;1739645;79;21090;-56
2021/09/30 07:16:14;;;;;;;9.05;5.15;;;;;;;12.33;56.31;102271.95;1725230;81;21101;-56
2021/09/30 07:18:41;;;;;;;9.78;5.80;;;;;;;12.36;55.82;102276.22;1703969;81;21051;-57
2021/09/30 07:21:08;;;;;;;12.82;6.25;;;;;;;12.42;55.87;102276.72;1728402;80;21093;-57
2021/09/30 07:23:35;;;;;;;10.05;6.05;;;;;;;12.49;55.72;102277.66;1726228;81;21561;-57
2021/09/30 07:26:02;;;;;;;8.60;4.53;;;;;;;12.54;55.43;102279.56;1707587;82;21069;-57
2021/09/30 07:28:28;;;;;;;9.13;5.65;;;;;;;12.59;55.18;102276.19;1702223;82;21124;-57
2021/09/30 07:30:56;;;;;;;12.33;5.47;;;;;;;12.65;55.33;102273.20;1725943;81;21824;-57
2021/09/30 07:33:24;;;;;;;10.53;4.87;;;;;;;12.69;55.19;102273.38;1733431;81;21050;-56
2021/09/30 07:35:53;;;;;;;11.25;5.37;;;;;;;12.73;54.67;102277.56;1725751;81;21859;-56
2021/09/30 07:38:22;;;;;;;9.98;5.55;;;;;;;12.77;54.82;102276.42;1727606;81;21322;-56
2021/09/30 07:40:49;;;;;;;8.53;4.42;;;;;;;12.84;54.57;102278.23;1725337;81;21495;-56
2021/09/30 07:43:16;;;;;;;9.68;5.00;;;;;;;12.86;54.51;102278.14;1730353;81;22005;-57
2021/09/30 07:45:43;;;;;;;9.23;4.70;;;;;;;12.89;54.54;102272.69;1739338;81;21117;-56
2021/09/30 07:48:10;;;;;;;7.83;4.28;;;;;;;12.94;54.57;102270.61;1733156;81;21081;-55
2021/09/30 07:50:38;;;;;;;11.30;5.85;;;;;;;13.00;53.99;102272.90;1729542;81;21589;-56
2021/09/30 07:53:04;;;;;;;9.53;5.53;;;;;;;13.03;53.78;102270.52;1724821;81;21132;-56
2021/09/30 07:55:31;;;;;;;10.65;5.55;;;;;;;13.05;53.28;102264.22;1733677;81;22017;-55
2021/09/30 07:57:57;;;;;;;8.53;5.40;;;;;;;13.07;52.95;102270.25;1728064;81;21080;-56
2021/09/30 08:00:24;;;;;;;8.90;5.22;;;;;;;13.13;53.24;102272.98;1706609;81;20981;-57
2021/09/30 08:02:50;;;;;;;9.08;4.72;;;;;;;13.16;52.27;102268.39;1724883;81;21522;-56
2021/09/30 08:05:17;;;;;;;7.70;4.83;;;;;;;13.18;52.47;102275.75;1724734;81;21134;-56
2021/09/30 08:07:47;;;;;;;9.03;4.47;;;;;;;13.22;52.36;102275.09;1696263;81;22104;-56
2021/09/30 08:10:13;;;;;;;9.13;4.58;;;;;;;13.25;52.53;102272.74;1730894;81;21040;-58
2021/09/30 08:12:41;;;;;;;6.45;3.95;;;;;;;13.28;52.19;102277.36;1723212;81;21069;-55
2021/09/30 08:15:09;;;;;;;7.05;3.62;;;;;;;13.31;51.78;102276.31;1723079;81;22268;-57
2021/09/30 08:17:35;;;;;;;8.40;4.28;;;;;;;13.33;51.06;102279.28;1721938;81;21053;-57
2021/09/30 08:20:04;;;;;;;8.18;3.77;;;;;;;13.37;50.95;102275.97;1732346;81;21528;-56
2021/09/30 08:22:31;;;;;;;5.62;2.95;;;;;;;13.42;50.81;102274.37;1730666;81;21558;-57
2021/09/30 08:24:58;;;;;;;7.70;4.28;;;;;;;13.46;50.27;102280.67;1729869;81;21116;-56
2021/09/30 08:27:24;;;;;;;7.83;4.05;;;;;;;13.49;49.86;102276.52;1703618;81;21056;-57
2021/09/30 08:29:50;;;;;;;8.20;3.90;;;;;;;13.53;49.87;102277.17;1731536;81;21095;-57
2021/09/30 08:32:16;;;;;;;7.10;3.95;;;;;;;13.51;49.60;102272.47;1729742;81;21129;-57
2021/09/30 08:34:43;;;;;;;9.65;4.67;;;;;;;13.49;49.60;102271.72;1728878;81;21024;-56
2021/09/30 08:37:09;;;;;;;7.50;4.28;;;;;;;13.54;49.33;102270.47;1708596;81;21022;-57
2021/09/30 08:39:35;;;;;;;9.80;3.70;;;;;;;13.58;49.60;102269.80;1700776;82;21010;-57
2021/09/30 08:42:04;;;;;;;7.00;3.42;;;;;;;13.63;49.38;102272.17;1733115;81;21731;-57
2021/09/30 08:44:34;;;;;;;5.92;3.10;;;;;;;13.69;49.38;102271.80;1724784;81;21597;-57
2021/09/30 08:47:04;;;;;;;5.90;3.37;;;;;;;13.74;48.54;102273.67;1730949;81;21046;-57
2021/09/30 08:49:32;;;;;;;6.10;3.27;;;;;;;13.77;48.67;102273.48;1729775;81;21023;-56
2021/09/30 08:51:59;;;;;;;6.33;3.20;;;;;;;13.81;48.81;102271.00;1729849;81;21079;-57
2021/09/30 08:54:26;;;;;;;6.78;3.40;;;;;;;13.84;48.02;102271.30;1725743;81;21613;-56
2021/09/30 08:56:52;;;;;;;5.70;3.33;;;;;;;13.86;47.25;102271.56;1724068;81;21125;-56
2021/09/30 08:59:27;;;;;;;7.15;3.67;;;;;;;13.85;47.55;102264.59;1725725;81;21092;-57
2021/09/30 09:02:14;;;;;;;6.30;2.98;;;;;;;13.88;47.32;102270.14;1735744;81;21108;-57
2021/09/30 09:04:56;;;;;;;8.13;3.50;;;;;;;13.91;47.24;102272.59;1727571;81;21521;-55
2021/09/30 09:07:28;;;;;;;6.20;2.85;;;;;;;13.93;47.45;102257.46;1708348;82;21116;-55
2021/09/30 09:09:58;;;;;;;5.78;2.83;;;;;;;13.94;47.36;102263.14;1674942;82;21546;-56
2021/09/30 09:12:27;;;;;;;6.10;2.70;;;;;;;13.93;47.20;102258.78;1735443;81;21104;-55
2021/09/30 09:14:55;;;;;;;6.25;2.50;;;;;;;13.94;47.12;102259.17;1722180;81;21142;-55
2021/09/30 09:17:23;;;;;;;8.65;3.30;;;;;;;13.96;47.66;102259.07;1731383;80;21054;-57
2021/09/30 09:19:58;;;;;;;7.05;2.77;;;;;;;13.99;47.44;102258.88;1700740;81;21020;-56
2021/09/30 09:22:32;;;;;;;7.17;2.92;;;;;;;14.00;47.29;102256.11;1723529;81;21547;-57
2021/09/30 09:25:03;;;;;;;6.67;3.22;;;;;;;14.04;47.37;102258.95;1697696;81;21445;-56
2021/09/30 09:27:57;;;;;;;7.10;3.37;;;;;;;14.07;47.31;102256.11;1752819;80;21049;-57
2021/09/30 09:30:45;;;;;;;7.70;3.77;;;;;;;14.13;46.63;102257.01;1730686;80;21042;-57
2021/09/30 09:33:20;;;;;;;6.87;3.75;;;;;;;14.18;47.07;102256.72;1749827;80;22110;-57
2021/09/30 09:36:08;;;;;;;8.60;3.72;;;;;;;14.22;46.96;102260.00;1692470;82;21035;-57
2021/09/30 09:38:47;;;;;;;6.72;3.87;;;;;;;14.28;46.92;102252.51;1754665;80;21029;-57
2021/09/30 09:41:23;;;;;;;6.70;3.70;;;;;;;14.34;46.74;102251.73;1751843;80;21036;-57
2021/09/30 09:43:50;;;;;;;7.53;4.22;;;;;;;14.36;46.99;102255.14;1757455;80;21030;-57
2021/09/30 09:46:18;;;;;;;6.10;3.27;;;;;;;14.44;46.50;102252.81;1721804;81;21125;-58
2021/09/30 09:49:08;;;;;;;6.17;3.80;;;;;;;14.49;47.12;102254.22;1722897;81;21170;-57
2021/09/30 09:51:39;;;;;;;10.35;4.50;;;;;;;14.57;46.85;102255.02;1756640;80;21547;-56
2021/09/30 09:54:18;;;;;;;9.68;4.25;;;;;;;14.62;46.47;102252.09;1751875;80;21131;-57
2021/09/30 09:56:44;;;;;;;7.37;4.55;;;;;;;14.66;46.21;102248.30;1726384;81;21519;-56
2021/09/30 09:59:11;;;;;;;10.15;4.97;;;;;;;14.65;46.41;102251.89;1754556;80;21482;-56
2021/09/30 10:01:43;;;;;;;8.30;4.42;;;;;;;14.65;46.40;102256.70;1748388;80;21558;-56
2021/09/30 10:04:13;;;;;;;8.13;4.97;;;;;;;14.68;46.15;102259.64;1730603;81;21089;-56
2021/09/30 10:06:40;;;;;;;7.28;4.00;;;;;;;14.70;45.81;102252.42;1728559;81;21112;-57
2021/09/30 10:09:08;;;;;;;7.47;4.45;;;;;;;14.75;45.77;102259.58;1755127;80;21049;-57
2021/09/30 10:11:35;;;;;;;6.47;4.10;;;;;;;14.77;45.93;102254.18;1752959;80;21040;-56
2021/09/30 10:14:05;;;;;;;7.67;4.85;;;;;;;14.76;45.76;102256.00;1723163;81;21150;-57
2021/09/30 10:16:35;;;;;;;8.18;4.65;;;;;;;14.76;45.92;102254.67;1717845;81;22301;-57
2021/09/30 10:19:04;;;;;;;7.60;4.25;;;;;;;14.82;45.84;102254.23;1725752;81;21049;-57
2021/09/30 10:21:31;;;;;;;8.25;4.42;;;;;;;14.86;45.95;102243.81;1757754;79;21065;-56
2021/09/30 10:24:04;;;;;;;8.40;4.42;;;;;;;14.91;45.89;102247.48;1747185;79;21702;-56
2021/09/30 10:26:44;;;;;;;7.50;4.17;;;;;;;14.97;46.21;102244.38;1746733;79;21174;-56
2021/09/30 10:29:08;;;;;;;7.10;4.12;;;;;;;14.97;45.28;102246.19;1755709;79;21039;-55
2021/09/30 10:31:36;;;;;;;7.45;3.90;;;;;;;14.86;45.19;102236.31;1752796;79;21074;-59
2021/09/30 10:34:07;;;;;;;6.75;3.60;;;;;;;14.76;44.72;102238.77;1760900;79;20962;-57
2021/09/30 10:36:38;;;;;;;8.15;4.50;;;;;;;14.66;45.44;102241.19;1755143;79;21028;-57
2021/09/30 10:39:29;;;;;;;7.78;4.45;;;;;;;14.65;45.40;102241.30;1755426;79;21586;-57
2021/09/30 10:42:03;;;;;;;8.10;3.95;;;;;;;14.72;45.33;102234.61;1755670;79;21505;-58
2021/09/30 10:44:35;;;;;;;7.78;4.65;;;;;;;14.86;45.64;102233.66;1728800;80;21562;-58
2021/09/30 10:47:08;;;;;;;8.18;4.40;;;;;;;14.97;45.53;102231.61;1723134;81;21064;-56
2021/09/30 10:49:48;;;;;;;7.67;3.83;;;;;;;15.06;44.54;102230.95;1755464;79;21049;-56
2021/09/30 10:52:25;;;;;;;6.40;3.70;;;;;;;15.14;45.06;102230.44;1753254;79;21134;-56
2021/09/30 10:55:10;;;;;;;8.85;4.10;;;;;;;15.23;43.80;102227.13;1722525;80;21081;-56
2021/09/30 10:57:37;;;;;;;7.45;4.10;;;;;;;15.30;42.85;102225.75;1745187;79;21009;-56
2021/09/30 11:00:21;;;;;;;6.97;4.42;;;;;;;15.33;43.21;102222.89;1752244;79;20950;-56
2021/09/30 11:03:09;;;;;;;6.87;3.90;;;;;;;15.37;43.26;102224.35;1753700;79;21057;-57
2021/09/30 11:05:38;;;;;;;7.53;3.87;;;;;;;15.43;43.67;102221.73;1760232;79;21050;-55
2021/09/30 11:08:25;;;;;;;7.50;4.25;;;;;;;15.47;43.30;102224.55;1759749;79;21461;-57
2021/09/30 11:11:09;;;;;;;9.35;4.12;;;;;;;15.52;42.83;102219.77;1758478;79;20997;-56
2021/09/30 11:13:51;;;;;;;7.42;3.80;;;;;;;15.56;41.80;102221.70;1757932;79;21037;-57
2021/09/30 11:16:24;;;;;;;7.10;4.45;;;;;;;15.51;42.14;102215.89;1757773;79;22368;-57
2021/09/30 11:18:54;;;;;;;6.55;3.85;;;;;;;15.52;42.50;102213.13;1751584;79;21052;-57
2021/09/30 11:21:37;;;;;;;6.70;3.67;;;;;;;15.57;43.12;102204.84;1748259;79;21520;-56
2021/09/30 11:24:23;;;;;;;7.70;4.22;;;;;;;15.62;42.36;102201.38;1726033;80;21067;-55
2021/09/30 11:26:58;;;;;;;5.90;3.40;;;;;;;15.67;41.61;102197.03;1753267;79;21085;-55
2021/09/30 11:29:30;;;;;;;7.70;4.03;;;;;;;15.65;42.27;102199.83;1758648;79;21078;-56
2021/09/30 11:32:02;;;;;;;7.17;4.30;;;;;;;15.68;42.42;102201.40;1726325;80;21812;-55
2021/09/30 11:34:35;;;;;;;6.75;3.50;;;;;;;15.73;41.81;102196.60;1753689;79;21028;-57
2021/09/30 11:37:31;;;;;;;7.40;4.25;;;;;;;15.74;41.66;102188.53;1756696;79;21571;-57
2021/09/30 11:39:59;;;;;;;10.90;3.77;;;;;;;15.78;41.10;102193.16;1757563;79;21698;-56
2021/09/30 11:42:37;;;;;;;6.65;3.60;;;;;;;15.83;42.01;102192.34;1749371;79;21849;-58
2021/09/30 11:45:14;;;;;;;7.37;4.10;;;;;;;15.88;42.84;102186.70;1721776;81;21112;-58
2021/09/30 11:47:41;;;;;;;7.08;3.92;;;;;;;15.96;42.14;102190.47;1750977;80;21015;-57
2021/09/30 11:50:18;;;;;;;10.30;4.55;;;;;;;16.04;42.23;102185.06;1756325;79;21011;-57
2021/09/30 11:52:44;;;;;;;7.95;4.22;;;;;;;16.12;41.84;102178.70;1756685;79;21041;-56
2021/09/30 11:55:16;;;;;;;8.10;4.03;;;;;;;16.13;41.50;102180.41;1749005;80;21116;-56
2021/09/30 11:57:51;;;;;;;8.13;4.20;;;;;;;16.06;41.33;102180.02;1722994;80;21095;-57
2021/09/30 12:00:19;;;;;;;6.35;4.33;;;;;;;16.03;41.16;102171.44;1755832;79;28263;-56
2021/09/30 12:02:56;;;;;;;6.85;3.87;;;;;;;15.98;40.63;102170.45;1755728;79;21020;-56
2021/09/30 12:05:25;;;;;;;8.13;4.40;;;;;;;15.90;40.63;102176.35;1755509;79;21097;-56
2021/09/30 12:07:54;;;;;;;9.33;3.55;;;;;;;15.82;40.48;102167.23;1756513;79;21092;-57
2021/09/30 12:11:54;;;;;;;7.37;4.08;;;;;;;15.75;41.16;102161.08;1793428;79;23005;-56
2021/09/30 12:14:23;;;;;;;7.00;4.20;;;;;;;15.73;41.25;102168.73;1773945;79;21019;-57
2021/09/30 12:17:00;;;;;;;7.65;4.72;;;;;;;15.71;40.82;102166.68;1774366;80;21604;-57
2021/09/30 12:19:35;;;;;;;9.20;4.67;;;;;;;15.66;40.85;102160.38;1779816;78;20865;-56
2021/09/30 12:22:03;;;;;;;7.42;4.55;;;;;;;15.67;40.93;102163.86;1769626;79;20945;-56
2021/09/30 12:24:30;;;;;;;7.08;4.33;;;;;;;15.67;40.82;102158.10;1746282;80;21136;-57
2021/09/30 12:26:56;;;;;;;8.43;4.45;;;;;;;15.73;41.05;102150.99;1767780;79;21472;-57
2021/09/30 12:29:23;;;;;;;6.78;4.33;;;;;;;15.88;41.46;102146.88;1742635;80;21197;-57
2021/09/30 12:32:09;;;;;;;6.70;3.83;;;;;;;16.00;41.32;102145.11;1766546;79;21085;-57
2021/09/30 12:34:36;;;;;;;7.65;3.92;;;;;;;16.11;40.61;102143.83;1775720;80;21504;-55
2021/09/30 12:37:03;;;;;;;7.85;4.22;;;;;;;16.24;41.00;102139.74;1746102;80;21579;-56
2021/09/30 12:39:31;;;;;;;7.58;4.00;;;;;;;16.33;40.33;102137.23;1773312;80;21046;-56
2021/09/30 12:42:15;;;;;;;6.75;3.95;;;;;;;16.40;40.67;102140.27;1750494;80;21944;-56
2021/09/30 12:44:43;;;;;;;7.05;4.28;;;;;;;16.52;39.59;102135.36;1768523;80;20964;-57
2021/09/30 12:47:12;;;;;;;6.83;4.03;;;;;;;16.64;39.43;102134.02;1770329;79;20984;-57
2021/09/30 12:50:03;;;;;;;6.65;4.08;;;;;;;16.66;39.52;102130.29;1751423;80;21220;-57
2021/09/30 12:52:31;;;;;;;7.15;4.17;;;;;;;16.78;39.27;102126.28;1773568;80;21058;-57
2021/09/30 12:54:57;;;;;;;8.93;4.50;;;;;;;17.40;39.22;102127.56;1770997;79;21975;-57
2021/09/30 12:57:33;;;;;;;6.92;3.80;;;;;;;18.67;37.57;102123.19;1745826;80;21335;-57
2021/09/30 13:00:18;;;;;;;7.53;3.83;;;;;;;20.21;35.33;102118.73;1763422;80;21057;-57
2021/09/30 13:02:46;;;;;;;7.50;3.72;;;;;;;21.94;33.09;102110.89;1772426;79;21837;-57
2021/09/30 13:05:12;;;;;;;7.15;4.12;;;;;;;23.76;31.16;102110.64;1776444;79;21573;-56
2021/09/30 13:07:58;;;;;;;6.67;3.75;;;;;;;25.27;29.10;102097.78;1777453;79;21061;-58
2021/09/30 13:10:30;;;;;;;5.95;3.45;;;;;;;26.58;27.39;102091.69;1764482;80;21039;-56
2021/09/30 13:13:07;;;;;;;6.20;3.55;;;;;;;27.81;25.64;102095.83;1762447;80;21102;-56
2021/09/30 13:15:43;;;;;;;8.38;4.78;;;;;;;28.69;23.85;102083.18;1723217;82;21004;-56
2021/09/30 13:18:15;;;;;;;6.72;3.98;;;;;;;29.41;23.32;102077.64;1757284;80;20987;-57
2021/09/30 13:20:49;;;;;;;6.40;3.27;;;;;;;30.19;22.71;102068.84;1761985;80;21030;-56
2021/09/30 13:23:15;;;;;;;7.22;3.83;;;;;;;30.92;22.23;102066.89;1734412;80;20995;-57
2021/09/30 13:25:41;;;;;;;5.60;3.40;;;;;;;31.49;20.86;102062.86;1757733;79;21678;-57
2021/09/30 13:28:08;;;;;;;5.87;3.75;;;;;;;31.86;20.21;102062.97;1757973;80;20993;-57
2021/09/30 13:30:35;;;;;;;6.37;3.98;;;;;;;32.24;19.99;102061.11;1747209;80;22121;-57
2021/09/30 13:33:03;;;;;;;7.45;4.47;;;;;;;32.55;19.64;102058.75;1759283;80;21081;-56
2021/09/30 13:35:33;;;;;;;7.47;4.45;;;;;;;32.72;19.34;102046.70;1765209;80;20960;-57
2021/09/30 13:37:59;;;;;;;8.43;3.90;;;;;;;32.95;18.80;102052.23;1754225;80;20984;-62
2021/09/30 13:40:26;;;;;;;6.58;3.83;;;;;;;33.08;18.23;102047.09;1741514;80;21041;-59
2021/09/30 13:42:53;;;;;;;7.33;3.75;;;;;;;33.13;18.30;102048.58;1759270;80;21023;-58
2021/09/30 13:45:20;;;;;;;8.73;4.42;;;;;;;33.10;17.82;102040.89;1753315;80;21481;-58
2021/09/30 13:47:47;;;;;;;7.55;3.65;;;;;;;32.74;17.66;102034.49;1695188;82;21016;-58
2021/09/30 13:50:20;;;;;;;8.58;3.95;;;;;;;32.42;18.17;102036.58;1744783;80;21114;-58
2021/09/30 13:52:50;;;;;;;5.90;3.80;;;;;;;32.44;18.57;102033.63;1758115;80;20995;-58
2021/09/30 13:55:17;;;;;;;11.00;4.22;;;;;;;32.57;18.42;102028.01;1756590;80;21089;-58
2021/09/30 13:57:43;;;;;;;7.42;3.90;;;;;;;32.63;18.42;102029.00;1737497;80;21887;-58
2021/09/30 14:00:12;;;;;;;7.28;4.37;;;;;;;32.65;18.17;102029.08;1751471;80;21613;-57
2021/09/30 14:02:41;;;;;;;5.08;3.15;;;;;;;32.61;18.14;102025.14;1762341;80;20959;-58
2021/09/30 14:05:11;;;;;;;7.35;3.92;;;;;;;32.62;18.40;102022.73;1760600;80;21969;-58
2021/09/30 14:07:40;;;;;;;9.43;4.30;;;;;;;32.62;18.51;102022.73;1753668;80;20992;-57
2021/09/30 14:10:06;;;;;;;10.40;4.30;;;;;;;32.59;18.09;102020.43;1738665;80;21856;-58
2021/09/30 14:12:32;;;;;;;7.30;4.00;;;;;;;32.55;18.04;102016.52;1732782;80;20995;-57
2021/09/30 14:15:01;;;;;;;5.80;3.47;;;;;;;32.47;17.76;102016.83;1740771;81;21531;-57
2021/09/30 14:17:27;;;;;;;5.47;3.65;;;;;;;32.42;18.63;102013.97;1741917;80;21848;-56
2021/09/30 14:19:54;;;;;;;7.08;3.75;;;;;;;32.38;18.30;102017.14;1735511;80;21029;-59
2021/09/30 14:22:21;;;;;;;12.03;4.17;;;;;;;32.21;18.19;102013.37;1743338;80;21896;-57
2021/09/30 14:24:48;;;;;;;4.85;3.00;;;;;;;32.11;18.32;102014.44;1736065;80;21506;-57
2021/09/30 14:27:15;;;;;;;6.05;3.50;;;;;;;32.01;18.63;102017.14;1744522;80;21043;-58
2021/09/30 14:29:42;;;;;;;6.42;4.20;;;;;;;31.98;18.26;102010.79;1713226;82;21089;-56
2021/09/30 14:32:11;;;;;;;6.70;3.77;;;;;;;31.75;18.57;102007.38;1740616;80;21482;-58
2021/09/30 14:34:39;;;;;;;6.45;2.95;;;;;;;31.45;18.87;102009.94;1739489;80;21885;-56